Time;durP1;ratioP1;P1;durP2;ratioP2;P2;SDS_P1;SDS_P2;PMS_P1;PMS_P2;Temp;Humidity;BMP_temperature;BMP_pressure;BME280_temperature;BME280_humidity;BME280_pressure;Samples;Min_cycle;Max_cycle;Signal;HPM_P1;HPM_P2
2021/09/24 00:01:44;;;;;;;;;;;;;;;14.69;100.00;101177.78;4945016;28;20043;-84
2021/09/24 00:04:11;;;;;;;14.75;3.58;;;;;;;14.61;100.00;101167.88;4945758;28;19936;-84
2021/09/24 00:06:39;;;;;;;13.65;3.40;;;;;;;14.61;100.00;101170.56;4943675;28;20061;-85
2021/09/24 00:09:04;;;;;;;10.45;3.17;;;;;;;14.65;100.00;101161.09;4945488;28;20083;-84
2021/09/24 00:11:30;;;;;;;8.15;3.10;;;;;;;14.68;100.00;101159.91;4943417;28;20078;-84
2021/09/24 00:13:55;;;;;;;12.52;3.60;;;;;;;14.66;100.00;101165.47;4944287;28;20047;-84
2021/09/24 00:16:21;;;;;;;9.23;3.40;;;;;;;14.65;100.00;101171.06;4944636;28;20059;-83
2021/09/24 00:18:47;;;;;;;10.77;3.28;;;;;;;14.63;100.00;101168.53;4944605;28;20058;-83
2021/09/24 00:21:12;;;;;;;14.05;3.50;;;;;;;14.61;100.00;101159.75;4944667;28;20449;-87
2021/09/24 00:23:38;;;;;;;9.00;3.28;;;;;;;14.65;100.00;101163.78;4944001;28;20055;-84
2021/09/24 00:26:04;;;;;;;11.18;3.05;;;;;;;14.65;100.00;101158.41;4944753;28;20072;-85
2021/09/24 00:28:30;;;;;;;10.55;3.55;;;;;;;14.63;100.00;101157.72;4945905;28;20183;-84
2021/09/24 00:30:55;;;;;;;9.77;4.05;;;;;;;14.67;100.00;101158.19;4944003;28;20080;-83
2021/09/24 00:33:21;;;;;;;14.90;3.35;;;;;;;14.70;100.00;101162.41;4944509;28;20055;-87
2021/09/24 00:35:46;;;;;;;9.50;3.40;;;;;;;14.63;100.00;101171.25;4942940;28;20086;-83
2021/09/24 00:38:11;;;;;;;8.77;3.13;;;;;;;14.63;100.00;101168.53;4943497;28;20235;-86
2021/09/24 00:40:37;;;;;;;12.20;3.45;;;;;;;14.63;100.00;101163.13;4945190;28;20054;-83
2021/09/24 00:43:04;;;;;;;9.95;4.13;;;;;;;14.66;100.00;101164.63;4942812;28;20093;-84
2021/09/24 00:45:29;;;;;;;9.82;3.40;;;;;;;14.64;100.00;101172.94;4942035;28;20067;-85
2021/09/24 00:47:55;;;;;;;10.75;3.90;;;;;;;14.65;100.00;101166.50;4943163;28;20047;-84
2021/09/24 00:50:20;;;;;;;11.07;3.45;;;;;;;14.65;100.00;101177.31;4943813;28;20071;-85
2021/09/24 00:52:53;;;;;;;14.02;4.72;;;;;;;14.61;100.00;101159.75;4945000;28;20130;-87
2021/09/24 00:55:19;;;;;;;8.30;3.17;;;;;;;14.62;100.00;101156.06;4943339;28;20043;-83
2021/09/24 00:57:45;;;;;;;9.57;3.65;;;;;;;14.61;100.00;101154.38;4942306;28;20047;-84
2021/09/24 01:00:11;;;;;;;13.02;4.13;;;;;;;14.60;100.00;101163.50;4944695;28;20039;-85
2021/09/24 01:02:36;;;;;;;12.40;4.15;;;;;;;14.62;100.00;101172.28;4929195;28;20039;-84
2021/09/24 01:05:02;;;;;;;12.00;3.85;;;;;;;14.59;100.00;101167.22;4942796;28;20070;-83
2021/09/24 01:07:28;;;;;;;8.73;4.07;;;;;;;14.60;100.00;101173.47;4942374;28;20047;-82
2021/09/24 01:09:55;;;;;;;10.70;4.72;;;;;;;14.60;100.00;101163.50;4944289;28;20070;-82
2021/09/24 01:12:21;;;;;;;12.55;3.92;;;;;;;14.63;100.00;101156.91;4943085;28;20305;-84
2021/09/24 01:14:57;;;;;;;12.85;4.00;;;;;;;14.59;100.00;101156.44;4945124;28;20051;-85
2021/09/24 01:17:22;;;;;;;10.88;3.67;;;;;;;14.58;100.00;101159.28;4943779;28;20137;-82
2021/09/24 01:19:48;;;;;;;16.38;4.50;;;;;;;14.57;100.00;101163.03;4940894;28;20082;-83
2021/09/24 01:22:13;;;;;;;8.50;4.00;;;;;;;14.57;100.00;101169.25;4941692;28;20053;-83
2021/09/24 01:24:38;;;;;;;10.20;3.88;;;;;;;14.59;100.00;101167.22;4944756;28;20126;-82
2021/09/24 01:27:04;;;;;;;13.43;4.20;;;;;;;14.59;100.00;101169.94;4942927;28;20059;-83
2021/09/24 01:29:29;;;;;;;9.75;4.28;;;;;;;14.59;100.00;101169.09;4944168;28;20054;-83
2021/09/24 01:31:56;;;;;;;12.48;4.47;;;;;;;14.62;100.00;101161.47;4944026;28;20141;-82
2021/09/24 01:34:22;;;;;;;12.10;4.20;;;;;;;14.56;100.00;101159.50;4944620;28;20047;-85
2021/09/24 01:36:47;;;;;;;11.23;3.60;;;;;;;14.58;100.00;101160.13;4945945;28;20146;-81
2021/09/24 01:39:12;;;;;;;11.55;3.70;;;;;;;14.57;100.00;101150.34;4943123;28;20387;-84
2021/09/24 01:41:40;;;;;;;12.35;4.47;;;;;;;14.56;100.00;101161.34;4944406;28;20066;-83
2021/09/24 01:44:06;;;;;;;9.30;4.05;;;;;;;14.55;100.00;101149.69;4943867;28;22199;-82
2021/09/24 01:46:36;;;;;;;10.00;4.10;;;;;;;14.58;100.00;101148.50;4942277;28;20110;-85
2021/09/24 01:49:01;;;;;;;10.05;4.15;;;;;;;14.57;100.00;101144.97;4946410;28;20114;-82
2021/09/24 01:51:26;;;;;;;17.70;4.55;;;;;;;14.59;100.00;101151.03;4943266;28;20063;-83
2021/09/24 01:53:52;;;;;;;10.30;4.25;;;;;;;14.57;100.00;101142.25;4945433;28;20071;-83
2021/09/24 01:56:21;;;;;;;12.07;4.35;;;;;;;14.58;100.00;101143.94;4942786;28;20051;-85
2021/09/24 01:58:46;;;;;;;13.63;5.28;;;;;;;14.60;100.00;101138.34;4942495;28;20506;-83
2021/09/24 02:01:12;;;;;;;10.75;4.35;;;;;;;14.58;100.00;101135.81;4944765;28;20066;-82
2021/09/24 02:03:37;;;;;;;12.13;4.38;;;;;;;14.64;100.00;101142.34;4943766;28;20487;-82
2021/09/24 02:06:03;;;;;;;13.85;4.57;;;;;;;14.65;100.00;101131.38;4946219;28;20055;-83
2021/09/24 02:08:28;;;;;;;13.02;4.40;;;;;;;14.64;100.00;101132.41;4944718;28;20083;-83
2021/09/24 02:10:53;;;;;;;12.43;4.53;;;;;;;14.62;100.00;101134.47;4943547;28;20119;-83
2021/09/24 02:13:19;;;;;;;12.23;4.22;;;;;;;14.62;100.00;101128.22;4947311;28;20153;-83
2021/09/24 02:15:44;;;;;;;9.55;4.43;;;;;;;14.60;100.00;101125.69;4946119;28;20051;-82
2021/09/24 02:18:09;;;;;;;11.93;5.10;;;;;;;14.62;100.00;101129.06;4946333;28;20135;-82
2021/09/24 02:20:35;;;;;;;13.80;4.78;;;;;;;14.63;100.00;101127.19;4946562;28;20043;-83
2021/09/24 02:23:00;;;;;;;13.27;5.18;;;;;;;14.62;100.00;101131.75;4947407;28;20051;-87
2021/09/24 02:25:26;;;;;;;17.52;5.75;;;;;;;14.61;100.00;101134.63;4947308;28;20474;-82
2021/09/24 02:27:51;;;;;;;15.02;6.05;;;;;;;14.62;100.00;101128.22;4946765;28;20323;-83
2021/09/24 02:30:17;;;;;;;14.98;6.00;;;;;;;14.64;100.00;101126.16;4946389;28;20047;-83
2021/09/24 02:32:42;;;;;;;13.95;6.50;;;;;;;14.63;100.00;101128.03;4949126;28;20063;-81
2021/09/24 02:35:08;;;;;;;17.42;6.13;;;;;;;14.62;100.00;101133.63;4944364;28;20718;-82
2021/09/24 02:37:35;;;;;;;20.02;8.90;;;;;;;14.64;100.00;101120.75;4945512;28;20051;-82
2021/09/24 02:40:01;;;;;;;20.55;9.65;;;;;;;14.67;100.00;101131.19;4945266;28;20768;-84
2021/09/24 02:42:27;;;;;;;22.25;10.35;;;;;;;14.66;100.00;101124.94;4944359;28;20059;-85
2021/09/24 02:44:53;;;;;;;21.52;12.60;;;;;;;14.68;100.00;101129.34;4947540;28;20047;-83
2021/09/24 02:47:18;;;;;;;22.77;11.77;;;;;;;14.72;100.00;101133.34;4944369;28;20051;-82
2021/09/24 02:49:46;;;;;;;26.10;14.60;;;;;;;14.71;100.00;101128.97;4945678;28;20047;-85
2021/09/24 02:52:12;;;;;;;24.73;13.93;;;;;;;14.71;100.00;101126.28;4944116;28;22240;-82
2021/09/24 02:54:37;;;;;;;25.90;14.10;;;;;;;14.72;100.00;101127.94;4945821;28;20090;-83
2021/09/24 02:57:03;;;;;;;27.27;15.10;;;;;;;14.71;100.00;101127.13;4949038;28;20141;-82
2021/09/24 02:59:28;;;;;;;25.33;15.10;;;;;;;14.74;100.00;101125.91;4945331;28;20082;-82
2021/09/24 03:01:55;;;;;;;25.80;14.32;;;;;;;14.73;100.00;101125.06;4946005;28;20078;-86
2021/09/24 03:04:21;;;;;;;25.33;15.93;;;;;;;14.74;100.00;101131.31;4943665;28;20042;-83
2021/09/24 03:06:47;;;;;;;26.88;14.52;;;;;;;14.75;100.00;101127.59;4947305;28;20051;-86
2021/09/24 03:09:12;;;;;;;30.73;14.68;;;;;;;14.75;100.00;101132.97;4943140;28;20083;-83
2021/09/24 03:11:38;;;;;;;27.15;15.20;;;;;;;14.76;100.00;101134.66;4946732;28;20061;-82
2021/09/24 03:14:03;;;;;;;30.02;14.98;;;;;;;14.78;100.00;101129.91;4945318;28;20126;-86
2021/09/24 03:16:29;;;;;;;26.90;14.82;;;;;;;14.81;100.00;101129.53;4944083;28;20414;-82
2021/09/24 03:18:54;;;;;;;27.75;15.20;;;;;;;14.77;100.00;101125.53;4946591;28;20059;-82
2021/09/24 03:21:20;;;;;;;28.42;15.20;;;;;;;14.76;100.00;101124.72;4944114;28;20562;-82
2021/09/24 03:23:45;;;;;;;25.48;13.93;;;;;;;14.78;100.00;101121.81;4945574;28;20039;-83
2021/09/24 03:26:11;;;;;;;27.42;15.15;;;;;;;14.77;100.00;101125.53;4944927;28;20073;-82
2021/09/24 03:28:37;;;;;;;31.23;15.40;;;;;;;14.79;100.00;101123.50;4942381;28;20051;-86
2021/09/24 03:31:03;;;;;;;25.40;13.73;;;;;;;14.79;100.00;101123.50;4946720;28;20051;-82
2021/09/24 03:33:29;;;;;;;29.67;15.25;;;;;;;14.77;100.00;101120.13;4947112;28;20039;-82
2021/09/24 03:35:54;;;;;;;23.85;15.02;;;;;;;14.80;100.00;101114.38;4944014;28;20490;-82
2021/09/24 03:38:19;;;;;;;26.10;14.32;;;;;;;14.80;100.00;101125.19;4944120;28;20758;-83
2021/09/24 03:40:45;;;;;;;23.38;14.40;;;;;;;14.77;100.00;101120.13;4943887;28;20062;-83
2021/09/24 03:43:10;;;;;;;27.23;14.18;;;;;;;14.78;100.00;101121.81;4943778;28;20055;-82
2021/09/24 03:45:36;;;;;;;27.60;14.25;;;;;;;14.79;100.00;101123.50;4942830;28;20114;-83
2021/09/24 03:48:02;;;;;;;27.27;14.02;;;;;;;14.78;100.00;101119.94;4944566;28;20047;-83
2021/09/24 03:50:28;;;;;;;23.40;13.63;;;;;;;14.78;100.00;101116.41;4944855;28;20051;-83
2021/09/24 03:52:54;;;;;;;22.58;12.90;;;;;;;14.76;100.00;101118.44;4944189;28;20055;-83
2021/09/24 03:55:20;;;;;;;26.60;12.77;;;;;;;14.78;100.00;101111.00;4943454;28;20102;-82
2021/09/24 03:57:46;;;;;;;22.80;11.43;;;;;;;14.77;100.00;101117.44;4944198;28;20205;-82
2021/09/24 04:00:12;;;;;;;21.88;12.00;;;;;;;14.81;100.00;101116.03;4943765;28;20474;-83
2021/09/24 04:02:38;;;;;;;23.27;12.05;;;;;;;14.78;100.00;101119.09;4951169;28;20190;-82
2021/09/24 04:05:03;;;;;;;23.75;11.80;;;;;;;14.77;100.00;101120.13;4955673;28;20137;-83
2021/09/24 04:07:29;;;;;;;23.38;10.80;;;;;;;14.77;100.00;101120.97;4947765;28;20066;-86
2021/09/24 04:09:54;;;;;;;23.45;12.02;;;;;;;14.78;100.00;101111.84;4951970;28;20101;-81
2021/09/24 04:12:19;;;;;;;20.33;11.95;;;;;;;14.77;100.00;101118.28;4950917;28;20085;-83
2021/09/24 04:14:45;;;;;;;24.20;11.73;;;;;;;14.78;100.00;101111.84;4956711;28;20098;-82
2021/09/24 04:17:10;;;;;;;24.83;11.55;;;;;;;14.77;100.00;101110.16;4946607;28;20122;-82
2021/09/24 04:19:35;;;;;;;20.35;11.50;;;;;;;14.76;100.00;101104.94;4957036;28;20075;-83
2021/09/24 04:22:01;;;;;;;22.67;10.98;;;;;;;14.75;100.00;101114.91;4954803;28;20165;-84
2021/09/24 04:24:26;;;;;;;20.17;11.45;;;;;;;14.76;100.00;101113.91;4943014;28;20067;-83
2021/09/24 04:26:52;;;;;;;21.60;11.05;;;;;;;14.73;100.00;101114.28;4950798;28;20059;-82
2021/09/24 04:29:17;;;;;;;20.67;11.20;;;;;;;14.78;100.00;101111.84;4944172;28;20059;-84
2021/09/24 04:31:43;;;;;;;19.25;10.40;;;;;;;14.76;100.00;101115.75;4943245;28;20142;-83
2021/09/24 04:34:09;;;;;;;18.70;9.77;;;;;;;14.73;100.00;101113.41;4942430;28;20375;-83
2021/09/24 04:36:36;;;;;;;17.38;10.15;;;;;;;14.72;100.00;101112.56;4945315;28;20045;-83
2021/09/24 04:39:02;;;;;;;20.42;9.85;;;;;;;14.72;100.00;101115.28;4944979;28;20051;-82
2021/09/24 04:41:28;;;;;;;17.75;10.05;;;;;;;14.73;100.00;101119.69;4947827;28;20134;-82
2021/09/24 04:43:54;;;;;;;17.17;10.40;;;;;;;14.74;100.00;101117.81;4948783;28;20043;-85
2021/09/24 04:46:19;;;;;;;23.42;10.55;;;;;;;14.71;100.00;101115.47;4948901;28;20047;-82
2021/09/24 04:48:44;;;;;;;19.83;10.27;;;;;;;14.74;100.00;101115.09;4945617;28;20069;-83
2021/09/24 04:51:10;;;;;;;22.92;10.80;;;;;;;14.75;100.00;101114.06;4942788;28;20055;-81
2021/09/24 04:53:35;;;;;;;19.73;10.23;;;;;;;14.73;100.00;101113.41;4945912;28;20410;-83
2021/09/24 04:56:01;;;;;;;20.45;10.45;;;;;;;14.72;100.00;101115.28;4929106;28;20414;-82
2021/09/24 04:58:26;;;;;;;23.85;9.82;;;;;;;14.72;100.00;101117.16;4933827;28;20129;-86
2021/09/24 05:00:53;;;;;;;19.90;10.68;;;;;;;14.72;100.00;101111.75;4940489;28;20261;-82
2021/09/24 05:03:18;;;;;;;19.10;10.98;;;;;;;14.71;100.00;101110.91;4941499;28;20126;-82
2021/09/24 05:05:44;;;;;;;22.27;9.98;;;;;;;14.72;100.00;101123.38;4940546;28;20127;-81
2021/09/24 05:08:10;;;;;;;21.77;9.90;;;;;;;14.72;100.00;101122.53;4922238;28;20494;-86
2021/09/24 05:10:36;;;;;;;17.60;9.05;;;;;;;14.72;100.00;101109.03;4941327;28;20417;-85
2021/09/24 05:13:01;;;;;;;15.13;8.35;;;;;;;14.66;100.00;101114.16;4941023;28;20151;-82
2021/09/24 05:15:28;;;;;;;18.50;9.75;;;;;;;14.64;100.00;101118.91;4947190;28;20047;-82
2021/09/24 05:17:53;;;;;;;19.92;9.15;;;;;;;14.65;100.00;101115.19;4952441;28;20501;-82
2021/09/24 05:20:19;;;;;;;17.58;9.43;;;;;;;14.69;100.00;101118.34;4949769;28;20253;-85
2021/09/24 05:22:44;;;;;;;14.60;8.43;;;;;;;14.68;100.00;101118.56;4946205;28;20050;-82
2021/09/24 05:25:11;;;;;;;18.75;8.90;;;;;;;14.66;100.00;101124.94;4952298;28;20093;-85
2021/09/24 05:27:36;;;;;;;20.13;9.68;;;;;;;14.64;100.00;101120.75;4952327;28;20049;-81
2021/09/24 05:30:07;;;;;;;17.10;10.40;;;;;;;14.63;100.00;101119.09;4955163;28;20039;-83
2021/09/24 05:32:32;;;;;;;22.98;10.18;;;;;;;14.69;100.00;101112.13;4947808;28;20073;-82
2021/09/24 05:34:58;;;;;;;22.17;10.20;;;;;;;14.66;100.00;101108.75;4952480;28;20758;-83
2021/09/24 05:37:23;;;;;;;20.88;9.77;;;;;;;14.64;100.00;101101.84;4949258;28;20562;-82
2021/09/24 05:39:49;;;;;;;23.38;10.80;;;;;;;14.66;100.00;101108.75;4950002;28;20047;-83
2021/09/24 05:42:14;;;;;;;22.95;11.38;;;;;;;14.64;100.00;101102.72;4951791;28;20041;-83
2021/09/24 05:44:40;;;;;;;28.10;12.60;;;;;;;14.64;100.00;101104.53;4949051;28;20047;-84
2021/09/24 05:47:06;;;;;;;24.55;13.48;;;;;;;14.64;100.00;101104.53;4954401;28;20077;-84
2021/09/24 05:49:31;;;;;;;25.80;11.95;;;;;;;14.63;100.00;101106.41;4956475;28;20047;-81
2021/09/24 05:51:58;;;;;;;24.23;15.10;;;;;;;14.65;100.00;101111.66;4939052;28;20047;-82
2021/09/24 05:54:24;;;;;;;23.77;14.45;;;;;;;14.62;100.00;101102.03;4951746;28;20045;-83
2021/09/24 05:56:51;;;;;;;27.73;15.40;;;;;;;14.66;100.00;101097.94;4951357;28;20051;-84
2021/09/24 05:59:17;;;;;;;32.72;16.58;;;;;;;14.62;100.00;101103.91;4951398;28;20098;-82
2021/09/24 06:01:42;;;;;;;28.48;16.27;;;;;;;14.62;100.00;101095.81;4937424;29;20040;-83
2021/09/24 06:04:08;;;;;;;33.58;18.08;;;;;;;14.66;100.00;101102.50;4946600;28;20050;-82
2021/09/24 06:06:33;;;;;;;35.42;19.48;;;;;;;14.63;100.00;101105.56;4955637;28;20047;-86
2021/09/24 06:08:58;;;;;;;39.95;21.63;;;;;;;14.64;100.00;101100.00;4948693;28;20134;-82
2021/09/24 06:11:24;;;;;;;33.38;21.98;;;;;;;14.66;100.00;101100.66;4957024;28;20126;-82
2021/09/24 06:13:50;;;;;;;39.05;23.40;;;;;;;14.64;100.00;101102.72;4954261;28;20477;-81
2021/09/24 06:16:15;;;;;;;42.35;22.63;;;;;;;14.70;100.00;101102.97;4955771;28;20478;-83
2021/09/24 06:18:41;;;;;;;43.28;23.40;;;;;;;14.66;100.00;101114.16;4952595;28;20054;-83
2021/09/24 06:21:06;;;;;;;41.10;23.70;;;;;;;14.67;100.00;101117.69;4951301;28;20130;-85
2021/09/24 06:23:33;;;;;;;41.92;25.35;;;;;;;14.69;100.00;101122.91;4956009;28;20066;-83
2021/09/24 06:25:59;;;;;;;47.90;26.70;;;;;;;14.70;100.00;101121.88;4951420;28;20043;-83
2021/09/24 06:28:26;;;;;;;47.38;26.85;;;;;;;14.69;100.00;101129.16;4950694;28;20039;-84
2021/09/24 06:30:51;;;;;;;52.05;28.83;;;;;;;14.68;100.00;101138.28;4943844;28;20050;-84
2021/09/24 06:33:17;;;;;;;51.42;29.05;;;;;;;14.73;100.00;101124.22;4918411;29;20044;-88
2021/09/24 06:35:43;;;;;;;51.88;28.98;;;;;;;14.74;100.00;101120.50;4932794;29;20724;-82
2021/09/24 06:38:08;;;;;;;55.08;30.30;;;;;;;14.75;100.00;101122.19;4950322;28;20074;-82
2021/09/24 06:40:34;;;;;;;57.42;34.47;;;;;;;14.76;100.00;101119.31;4950712;28;20062;-82
2021/09/24 06:42:59;;;;;;;60.05;33.53;;;;;;;14.75;100.00;101117.59;4950470;28;20512;-83
2021/09/24 06:45:25;;;;;;;62.78;32.10;;;;;;;14.78;100.00;101122.66;4953062;28;20642;-82
2021/09/24 06:47:50;;;;;;;60.53;34.03;;;;;;;14.78;100.00;101114.53;4934900;29;20078;-82
2021/09/24 06:50:15;;;;;;;64.53;33.03;;;;;;;14.81;100.00;101121.44;4939858;28;20169;-82
2021/09/24 06:52:42;;;;;;;62.90;35.33;;;;;;;14.79;100.00;101121.63;4946071;28;20126;-83
2021/09/24 06:55:08;;;;;;;71.57;37.08;;;;;;;14.83;100.00;101114.00;4956388;28;20465;-82
2021/09/24 06:57:33;;;;;;;77.35;38.88;;;;;;;14.85;100.00;101120.06;4950331;28;20273;-85
2021/09/24 06:59:58;;;;;;;78.47;38.97;;;;;;;14.85;100.00;101120.91;4952753;28;20176;-83
2021/09/24 07:02:24;;;;;;;86.32;41.88;;;;;;;14.87;100.00;101118.88;4950366;28;20049;-83
2021/09/24 07:04:49;;;;;;;82.85;41.00;;;;;;;14.87;100.00;101124.25;4949998;28;20409;-82
2021/09/24 07:07:14;;;;;;;88.55;43.78;;;;;;;14.89;100.00;101121.38;4954145;28;20401;-82
2021/09/24 07:09:40;;;;;;;87.93;42.42;;;;;;;14.94;100.00;101118.94;4947600;28;20130;-85
2021/09/24 07:12:06;;;;;;;87.65;44.45;;;;;;;14.96;100.00;101124.16;4956095;28;20078;-82
2021/09/24 07:14:32;;;;;;;99.63;47.67;;;;;;;14.96;100.00;101124.16;4919633;28;20047;-82
2021/09/24 07:16:58;;;;;;;99.15;48.50;;;;;;;14.96;100.00;101132.25;4947393;28;20082;-82
2021/09/24 07:19:24;;;;;;;105.07;47.60;;;;;;;14.99;100.00;101126.50;4950620;28;20127;-83
2021/09/24 07:21:49;;;;;;;109.97;48.22;;;;;;;14.97;100.00;101131.25;4942456;28;20138;-86
2021/09/24 07:24:17;;;;;;;111.90;48.78;;;;;;;15.02;100.00;101126.97;4950805;28;20398;-83
2021/09/24 07:26:43;;;;;;;113.82;52.50;;;;;;;15.05;100.00;101126.59;4954223;28;20109;-83
2021/09/24 07:29:08;;;;;;;119.90;49.53;;;;;;;15.07;100.00;101116.44;4932328;29;20043;-83
2021/09/24 07:31:33;;;;;;;118.50;50.83;;;;;;;15.07;100.00;101108.31;4948445;28;20403;-82
2021/09/24 07:33:59;;;;;;;124.88;48.97;;;;;;;15.07;100.00;101111.03;4943448;28;20105;-86
2021/09/24 07:36:25;;;;;;;125.75;50.83;;;;;;;15.09;100.00;101119.78;4937262;28;20055;-84
2021/09/24 07:38:51;;;;;;;126.78;48.20;;;;;;;15.11;100.00;101112.34;4934118;28;20495;-82
2021/09/24 07:41:18;;;;;;;132.13;50.00;;;;;;;15.14;100.00;101121.13;4943356;28;20200;-82
2021/09/24 07:43:46;;;;;;;128.95;52.95;;;;;;;15.15;100.00;101118.22;4933827;28;20083;-85
2021/09/24 07:46:11;;;;;;;143.43;55.95;;;;;;;15.19;100.00;101122.25;4935602;28;20787;-82
2021/09/24 07:48:37;;;;;;;136.75;53.20;;;;;;;15.19;100.00;101124.94;4942150;28;20374;-84
2021/09/24 07:51:03;;;;;;;143.88;54.08;;;;;;;15.22;100.00;101127.28;4939969;28;20054;-82
2021/09/24 07:53:29;;;;;;;137.68;50.10;;;;;;;15.22;100.00;101123.69;4943440;28;20134;-83
2021/09/24 07:55:54;;;;;;;142.38;52.85;;;;;;;15.21;100.00;101125.56;4939155;28;20062;-82
2021/09/24 07:58:20;;;;;;;127.60;48.90;;;;;;;15.22;100.00;101123.69;4926886;28;20470;-86
2021/09/24 08:00:45;;;;;;;133.85;52.30;;;;;;;15.23;100.00;101126.22;4937163;28;20282;-84
2021/09/24 08:03:11;;;;;;;141.80;50.58;;;;;;;15.22;100.00;101131.81;4936909;28;20516;-82
2021/09/24 08:05:36;;;;;;;133.75;49.72;;;;;;;15.20;100.00;101123.91;4943677;28;20039;-85
2021/09/24 08:08:02;;;;;;;148.07;54.78;;;;;;;15.21;100.00;101128.28;4939485;28;20313;-83
2021/09/24 08:10:29;;;;;;;143.70;54.25;;;;;;;15.21;100.00;101127.44;4941189;28;20051;-83
2021/09/24 08:12:55;;;;;;;138.80;52.75;;;;;;;15.20;100.00;101128.47;4939722;28;20043;-83
2021/09/24 08:15:22;;;;;;;144.18;53.53;;;;;;;15.19;100.00;101126.78;4933363;28;20078;-86
2021/09/24 08:17:47;;;;;;;139.63;51.85;;;;;;;15.21;100.00;101119.34;4942885;28;20051;-82
2021/09/24 08:20:14;;;;;;;131.15;49.05;;;;;;;15.21;100.00;101124.75;4923455;29;20139;-86
2021/09/24 08:22:40;;;;;;;124.93;51.33;;;;;;;15.21;100.00;101130.16;4939790;28;20118;-84
2021/09/24 08:25:07;;;;;;;130.27;51.10;;;;;;;15.22;100.00;101137.22;4939246;28;20098;-82
2021/09/24 08:27:33;;;;;;;123.55;47.70;;;;;;;15.22;100.00;101132.69;4936104;28;20079;-83
2021/09/24 08:29:59;;;;;;;116.13;45.63;;;;;;;15.24;100.00;101129.78;4929266;28;20048;-83
2021/09/24 08:32:25;;;;;;;118.07;47.17;;;;;;;15.26;100.00;101130.44;4934912;28;20047;-85
2021/09/24 08:34:50;;;;;;;113.47;41.67;;;;;;;15.25;100.00;101135.00;4944106;28;20110;-84
2021/09/24 08:37:15;;;;;;;103.22;40.88;;;;;;;15.24;100.00;101135.19;4944826;28;20053;-82
2021/09/24 08:39:41;;;;;;;112.93;42.92;;;;;;;15.27;100.00;101132.09;4934967;28;20059;-83
2021/09/24 08:42:06;;;;;;;107.95;42.90;;;;;;;15.26;100.00;101128.56;4940435;28;20047;-86
2021/09/24 08:44:32;;;;;;;104.70;40.78;;;;;;;15.30;100.00;101129.84;4924262;28;20047;-87
2021/09/24 08:46:58;;;;;;;108.15;42.00;;;;;;;15.29;100.00;101132.75;4936406;28;20126;-84
2021/09/24 08:49:23;;;;;;;98.32;39.92;;;;;;;15.30;100.00;101137.97;4934367;28;20494;-84
2021/09/24 08:51:49;;;;;;;87.05;35.78;;;;;;;15.32;100.00;101140.50;4940746;29;20051;-84
2021/09/24 08:54:14;;;;;;;87.75;35.53;;;;;;;15.32;100.00;101118.88;4945667;28;20051;-82
2021/09/24 08:56:40;;;;;;;82.60;36.30;;;;;;;15.35;100.00;101129.31;4932117;28;20092;-87
2021/09/24 08:59:05;;;;;;;84.78;33.28;;;;;;;15.39;100.00;101129.75;4941453;28;20058;-83
2021/09/24 09:01:31;;;;;;;82.53;36.20;;;;;;;15.42;100.00;101127.53;4935986;28;20048;-82
2021/09/24 09:03:57;;;;;;;85.75;35.78;;;;;;;15.46;100.00;101126.13;4942555;28;20545;-84
2021/09/24 09:06:23;;;;;;;80.05;34.78;;;;;;;15.45;100.00;101131.72;4943093;28;20099;-81
2021/09/24 09:08:48;;;;;;;85.97;33.30;;;;;;;15.46;100.00;101128.00;4942760;28;20055;-82
2021/09/24 09:11:19;;;;;;;75.72;31.92;;;;;;;15.48;100.00;101129.50;4943404;28;20483;-82
2021/09/24 09:13:56;;;;;;;73.90;31.80;;;;;;;15.50;100.00;101127.41;4943918;28;20428;-82
2021/09/24 09:16:31;;;;;;;77.03;33.33;;;;;;;15.51;100.00;101134.53;4929545;28;20406;-83
2021/09/24 09:19:05;;;;;;;72.88;32.53;;;;;;;15.57;100.00;101124.81;4941606;28;20051;-85
2021/09/24 09:21:31;;;;;;;67.07;31.85;;;;;;;15.56;100.00;101125.81;4937538;28;20629;-81
2021/09/24 09:23:56;;;;;;;70.95;33.53;;;;;;;15.57;100.00;101128.34;4938412;28;20086;-83
2021/09/24 09:26:23;;;;;;;65.93;31.55;;;;;;;15.62;100.00;101133.19;4939374;28;20453;-84
2021/09/24 09:28:49;;;;;;;65.57;31.63;;;;;;;15.65;100.00;101137.38;4939846;28;20062;-82
2021/09/24 09:31:27;;;;;;;57.13;27.50;;;;;;;15.66;100.00;101125.53;4942842;28;20047;-86
2021/09/24 09:33:54;;;;;;;62.50;30.98;;;;;;;15.65;100.00;101134.66;4930542;28;20511;-83
2021/09/24 09:36:29;;;;;;;66.32;31.60;;;;;;;15.67;100.00;101129.91;4945683;28;20097;-84
2021/09/24 09:38:55;;;;;;;63.15;31.52;;;;;;;15.70;100.00;101118.75;4942880;28;20356;-83
2021/09/24 09:41:23;;;;;;;65.88;29.55;;;;;;;15.70;100.00;101129.56;4940344;28;20043;-82
2021/09/24 09:43:56;;;;;;;58.67;30.92;;;;;;;15.72;100.00;101135.63;4935214;28;20529;-86
2021/09/24 09:46:30;;;;;;;63.20;30.15;;;;;;;15.73;100.00;101121.91;4948602;28;20074;-82
2021/09/24 09:49:14;;;;;;;57.70;30.67;;;;;;;15.74;100.00;101126.31;4947573;28;20086;-83
2021/09/24 09:51:42;;;;;;;56.53;27.30;;;;;;;15.76;100.00;101120.69;4946832;28;20061;-86
2021/09/24 09:54:10;;;;;;;57.83;30.60;;;;;;;15.77;100.00;101111.56;4944235;28;20564;-82
2021/09/24 09:56:40;;;;;;;57.60;29.80;;;;;;;15.82;100.00;101117.22;4947823;28;20335;-82
2021/09/24 09:59:47;;;;;;;56.40;29.40;;;;;;;15.82;100.00;101110.97;4945935;28;20513;-82
2021/09/24 10:02:14;;;;;;;55.20;28.52;;;;;;;15.87;100.00;101105.81;4904014;29;20498;-83
2021/09/24 10:04:48;;;;;;;53.38;27.55;;;;;;;15.91;100.00;101112.53;4941592;28;20059;-83
2021/09/24 10:07:22;;;;;;;51.00;28.73;;;;;;;15.98;100.00;101102.63;4938892;28;20246;-87
2021/09/24 10:10:01;;;;;;;50.75;27.42;;;;;;;16.04;100.00;101101.00;4938568;28;20042;-83
2021/09/24 10:12:26;;;;;;;47.97;27.35;;;;;;;16.16;100.00;101102.16;4937268;28;20047;-82
2021/09/24 10:14:52;;;;;;;52.97;29.13;;;;;;;16.26;100.00;101099.16;4941065;28;20051;-83
2021/09/24 10:17:22;;;;;;;47.25;26.30;;;;;;;16.28;100.00;101091.66;4949177;28;20105;-82
2021/09/24 10:19:49;;;;;;;48.47;25.52;;;;;;;16.36;100.00;101100.47;4946432;28;20047;-83
2021/09/24 10:22:14;;;;;;;53.45;28.48;;;;;;;16.39;100.00;101096.56;4940142;28;20044;-83
2021/09/24 10:24:41;;;;;;;47.97;27.38;;;;;;;16.45;100.00;101093.88;4942413;28;20118;-82
2021/09/24 10:27:12;;;;;;;44.50;25.30;;;;;;;16.49;100.00;101099.78;4934086;28;20711;-86
2021/09/24 10:29:43;;;;;;;44.80;24.85;;;;;;;16.58;100.00;101097.75;4932295;28;20166;-83
2021/09/24 10:32:21;;;;;;;43.00;26.10;;;;;;;16.68;100.00;101095.53;4941095;28;20055;-82
2021/09/24 10:35:03;;;;;;;42.78;24.40;;;;;;;16.77;100.00;101086.25;4930209;28;20072;-83
2021/09/24 10:37:41;;;;;;;44.58;24.58;;;;;;;16.84;100.00;101097.16;4938051;28;20046;-83
2021/09/24 10:40:22;;;;;;;44.60;25.13;;;;;;;16.88;100.00;101088.41;4938005;28;20051;-87
2021/09/24 10:42:51;;;;;;;43.50;25.00;;;;;;;16.92;100.00;101094.28;4938652;28;20061;-84
2021/09/24 10:45:32;;;;;;;42.80;25.67;;;;;;;17.02;100.00;101080.38;4940816;28;20043;-83
2021/09/24 10:48:03;;;;;;;43.75;25.77;;;;;;;17.09;100.00;101081.22;4945654;28;20256;-82
2021/09/24 10:50:29;;;;;;;40.13;23.65;;;;;;;17.19;100.00;101079.00;4945131;28;20493;-87
2021/09/24 10:53:09;;;;;;;43.22;24.92;;;;;;;17.25;100.00;101074.66;4945058;28;20055;-87
2021/09/24 10:55:45;;;;;;;40.40;24.63;;;;;;;17.29;100.00;101074.06;4945781;28;20051;-84
2021/09/24 10:58:35;;;;;;;41.17;24.38;;;;;;;17.32;100.00;101076.38;4946395;28;20058;-86
2021/09/24 11:01:05;;;;;;;38.95;23.38;;;;;;;17.32;100.00;101070.94;4946418;28;20113;-84
2021/09/24 11:03:31;;;;;;;38.55;22.35;;;;;;;17.40;100.00;101079.94;4950889;28;20043;-84